Jeffersonville, Ohio
Current Conditions -  °F | °C
As of 1:18 PM on Monday 26 Jan 2015 (Local Time) from KSGH Reporting Station
Scattered Clouds Scattered Clouds  
Wind Chill:   Ceiling: Unl
Heat Index: 19°   Visibility: 7mi
Dew Point: 14°   Wind: 12mph
Humidity: 80%   Direction: 300°WNW
Pressure: 29.87"   Gusts: NA
Location:  39.65°N, 83.56°W
Report Text: KSGH 261818Z AUTO 30010KT 7SM SCT010 M07/M10 A2987 RMK AO2
Loading
Personal Weather Stations






























Interactive Weather Map New forecast layout! Learn more

10-Day Weather Forecast

Advertisements
Track Severe Weather on mobile